DW1995 Weather Reports


time (UTC)temp
C
wind
direction
speed
KPH
gust
KPH
rain 1hr
cm
rain 24hr
cm
rain mn
cm
humidity
%
barometer
mb
20190425053104 5 110 0.0 1.6 0.00 0.43 0.03 96 1006.9
20190425051605 4 111 0.0 3.2 0.00 0.43 0.03 96 1006.8
20190425050123 4 111 0.0 0.0 0.00 0.43 0.03 95 1006.8
20190425044624 4 111 0.0 1.6 0.00 0.43 0.03 96 1007.0
20190425043117 4 111 0.0 1.6 0.00 0.43 0.03 95 1007.1
20190425041616 5 111 0.0 3.2 0.00 0.43 0.03 96 1007.1
20190425040101 4 112 0.0 1.6 0.00 0.43 0.03 95 1007.2
20190425034553 5 111 0.0 0.0 0.00 0.43 0.03 95 1006.8
20190425033112 4 111 0.0 4.8 0.03 0.43 0.03 96 1006.7
20190425031559 4 111 0.0 1.6 0.03 0.43 0.03 95 1006.9
20190425030039 5 111 0.0 0.0 0.03 0.43 0.03 95 1006.8
20190425024608 5 111 0.0 4.8 0.03 0.43 0.03 95 1006.8
20190425023059 5 111 0.0 6.4 0.00 0.43 0.00 95 1006.8
20190425021550 4 40 0.0 3.2 0.00 0.43 0.00 95 1006.9
20190425020100 5 40 0.0 3.2 0.00 0.43 0.00 95 1006.8
20190425014547 5 40 0.0 0.0 0.00 0.43 0.00 100 1006.9
20190425013046 5 40 0.0 0.0 0.00 0.43 0.00 95 1006.7
20190425011532 5 40 0.0 0.0 0.00 0.43 0.00 95 1006.4
20190425010020 5 40 0.0 4.8 0.00 0.43 0.00 95 1006.5
20190425004541 5 38 0.0 1.6 0.00 0.43 0.00 95 1006.6
20190425003033 5 38 0.0 1.6 0.00 0.43 0.00 95 1006.3
20190425001605 5 38 0.0 4.8 0.00 0.43 0.00 95 1006.5
20190425000024 5 37 0.0 3.2 0.00 0.43 0.00 95 1006.6
20190424234542 6 38 0.0 3.2 0.00 0.43 0.00 95 1006.7
20190424233016 5 37 0.0 1.6 0.00 0.43 0.00 95 1006.7
20190424231538 5 37 0.0 1.6 0.00 0.43 0.00 95 1006.6
20190424230033 5 38 0.0 3.2 0.00 0.43 0.00 94 1006.6
20190424224517 5 38 0.0 3.2 0.00 0.43 0.00 94 1006.5
20190424223008 5 38 0.0 0.0 0.00 0.43 0.00 94 1006.3
20190424221503 6 37 0.0 3.2 0.00 0.43 0.00 94 1006.3
20190424214630 6 30 3.2 9.7 0.00 0.43 0.43 95 1006.5
20190424213125 5 92 0.0 3.2 0.00 0.43 0.43 94 1006.4
20190424211639 6 94 0.0 3.2 0.00 0.43 0.43 94 1006.3
20190424210224 6 82 0.0 3.2 0.00 0.43 0.43 94 1006.3
20190424204648 6 83 0.0 3.2 0.00 0.43 0.43 93 1006.5
20190424203136 6 83 0.0 4.8 0.00 0.43 0.43 93 1006.5
20190424201617 6 67 0.0 1.6 0.00 0.43 0.43 92 1006.6
20190424200331 7 65 0.0 3.2 0.00 0.43 0.43 93 1006.3
20190424194637 7 66 0.0 4.8 0.00 0.43 0.43 93 1006.5
20190424193130 7 55 0.0 6.4 0.00 0.43 0.43 93 1006.4
20190424191626 7 96 0.0 3.2 0.00 0.43 0.43 92 1006.1
20190424190142 7 98 0.0 1.6 0.00 0.43 0.43 92 1006.0
20190424184622 7 98 0.0 1.6 0.05 0.43 0.43 91 1006.2
20190424183140 7 67 0.0 4.8 0.05 0.43 0.43 91 1006.1
20190424181618 8 313 0.0 6.4 0.15 0.43 0.43 90 1006.4
20190424180136 8 317 0.0 14.5 0.15 0.43 0.43 89 1007.5
20190424174707 8 288 1.6 16.1 0.20 0.38 0.38 91 1007.6
20190424173217 8 245 3.2 17.7 0.25 0.36 0.36 90 1008.1
20190424171632 8 249 0.0 6.4 0.25 0.28 0.28 90 1008.4
20190424170114 8 237 6.4 20.9 0.25 0.25 0.25 89 1007.6
20190424164603 8 253 8.0 22.5 0.18 0.18 0.18 88 1007.7
20190424163107 8 252 9.7 41.8 0.10 0.10 0.10 86 1007.3
20190424161622 10 290 9.7 38.6 0.03 0.03 0.03 83 1006.9
20190424160048 11 280 8.0 40.2 0.00 0.00 0.00 79 1005.9
20190424154630 11 283 11.3 32.2 0.00 0.00 0.00 78 1004.8
20190424153108 12 323 8.0 40.2 0.00 0.00 0.00 78 1003.9
20190424151606 12 280 11.3 41.8 0.00 0.00 0.00 74 1002.8
20190424150158 14 298 19.3 54.7 0.00 0.00 0.00 66 1002.0
20190424144624 17 311 20.9 56.3 0.00 0.00 0.00 62 1000.0
20190424143125 24 245 4.8 14.5 0.00 0.00 0.00 49 997.7
20190424141539 24 250 0.0 11.3 0.00 0.00 0.00 45 997.0
20190424140038 24 224 0.0 8.0 0.00 0.00 0.00 55 997.1
20190424134616 23 234 3.2 12.9 0.00 0.00 0.00 57 997.4
20190424133021 22 250 3.2 16.1 0.00 0.00 0.00 59 997.3
20190424131522 22 257 1.6 16.1 0.00 0.00 0.00 58 997.3
20190424130047 22 246 4.8 19.3 0.00 0.00 0.00 56 997.3
20190424124514 23 265 9.7 20.9 0.00 0.00 0.00 56 997.5
20190424123012 22 254 6.4 22.5 0.00 0.00 0.00 57 997.4
20190424121515 22 257 6.4 19.3 0.00 0.00 0.00 56 997.7
20190424120020 23 250 3.2 16.1 0.00 0.00 0.00 56 997.9
20190424114513 22 262 9.7 19.3 0.00 0.00 0.00 56 998.0
20190424113003 21 257 8.0 17.7 0.00 0.00 0.00 58 998.0
20190424111505 21 250 9.7 17.7 0.00 0.00 0.00 60 998.3
20190424110151 21 240 9.7 17.7 0.00 0.00 0.00 61 998.8
20190424104632 21 267 12.9 25.7 0.00 0.00 0.00 59 998.9
20190424103243 21 244 11.3 20.9 0.00 0.00 0.00 60 999.0
20190424101652 21 253 12.9 17.7 0.00 0.00 0.00 59 998.8
20190424100240 21 259 9.7 16.1 0.00 0.00 0.00 61 998.9
20190424094742 21 253 4.8 14.5 0.00 0.00 0.00 61 999.1
20190424093218 20 255 6.4 14.5 0.00 0.00 0.00 62 999.0
20190424091648 20 265 6.4 14.5 0.00 0.00 0.00 63 999.2
20190424090120 20 260 6.4 16.1 0.00 0.00 0.00 62 999.1
20190424084606 20 139 0.0 3.2 0.00 0.00 0.00 57 999.1
20190424083120 19 127 0.0 1.6 0.00 0.00 0.00 61 999.4
20190424081644 18 127 0.0 1.6 0.00 0.00 0.00 62 999.5
20190424080159 18 126 0.0 1.6 0.00 0.00 0.00 60 999.7
20190424074640 17 126 0.0 1.6 0.00 0.00 0.00 70 999.8
20190424073039 16 123 0.0 4.8 0.00 0.00 0.00 69 999.9
20190424071541 14 123 0.0 1.6 0.00 0.00 0.00 77 1000.0
20190424070053 13 118 0.0 1.6 0.00 0.00 0.00 83 999.8
20190424064546 13 117 0.0 1.6 0.00 0.00 0.00 86 999.7
20190424063018 13 112 0.0 1.6 0.00 0.00 0.00 86 999.7
20190424061624 12 112 0.0 0.0 0.00 0.00 0.00 84 999.6
20190424060022 12 112 0.0 1.6 0.00 0.00 0.00 85 999.5